createdAt,value
2022-12-17T00:01:07.000Z,268.21
2022-12-17T00:02:31.000Z,268.27
2022-12-17T00:04:35.000Z,268.4
2022-12-17T00:05:59.000Z,268.34
2022-12-17T00:08:03.000Z,268.4
2022-12-17T00:09:27.000Z,268.46
2022-12-17T00:11:30.000Z,268.65
2022-12-17T00:12:55.000Z,268.52
2022-12-17T00:14:58.000Z,268.4
2022-12-17T00:16:23.000Z,268.34
2022-12-17T00:18:26.000Z,268.46
2022-12-17T00:19:51.000Z,268.46
2022-12-17T00:21:57.000Z,268.4
2022-12-17T00:23:22.000Z,268.4
2022-12-17T00:25:25.000Z,268.4
2022-12-17T00:26:49.000Z,268.4
2022-12-17T00:28:53.000Z,268.34
2022-12-17T00:31:43.000Z,268.59
2022-12-17T00:33:07.000Z,268.65
2022-12-17T00:35:11.000Z,268.59
2022-12-17T00:36:35.000Z,268.46
2022-12-17T00:38:39.000Z,268.4
2022-12-17T00:40:03.000Z,268.52
2022-12-17T00:42:06.000Z,268.59
2022-12-17T00:43:31.000Z,268.65
2022-12-17T00:45:36.000Z,268.46
2022-12-17T00:47:00.000Z,268.46
2022-12-17T00:49:03.000Z,268.52
2022-12-17T00:50:28.000Z,268.52
2022-12-17T00:52:31.000Z,268.46
2022-12-17T00:53:56.000Z,268.4
2022-12-17T00:55:59.000Z,268.34
2022-12-17T00:57:24.000Z,268.4
2022-12-17T00:59:27.000Z,268.4
2022-12-17T01:00:52.000Z,268.46
2022-12-17T01:02:57.000Z,268.4
2022-12-17T01:04:22.000Z,268.4
2022-12-17T01:06:25.000Z,268.34
2022-12-17T01:09:14.000Z,268.4
2022-12-17T01:10:39.000Z,268.4
2022-12-17T01:12:42.000Z,268.34
2022-12-17T01:14:07.000Z,268.34
2022-12-17T01:16:10.000Z,268.27
2022-12-17T01:17:35.000Z,268.27
2022-12-17T01:19:38.000Z,268.27
2022-12-17T01:21:03.000Z,268.21
2022-12-17T01:23:06.000Z,268.27
2022-12-17T01:24:30.000Z,268.27
2022-12-17T01:26:34.000Z,268.34
2022-12-17T01:27:58.000Z,268.34
2022-12-17T01:30:02.000Z,268.34
2022-12-17T01:31:26.000Z,268.34
2022-12-17T01:33:36.000Z,268.27
2022-12-17T01:35:01.000Z,268.34
2022-12-17T01:37:05.000Z,268.4
2022-12-17T01:38:29.000Z,268.4
2022-12-17T01:40:33.000Z,268.34
2022-12-17T01:41:57.000Z,268.4
2022-12-17T01:44:01.000Z,268.34
2022-12-17T01:46:50.000Z,268.27
2022-12-17T01:48:14.000Z,268.27
2022-12-17T01:50:18.000Z,268.34
2022-12-17T01:51:42.000Z,268.27
2022-12-17T01:53:46.000Z,268.27
2022-12-17T01:55:10.000Z,268.34
2022-12-17T01:57:14.000Z,268.27
2022-12-17T01:58:38.000Z,268.27
2022-12-17T02:00:41.000Z,268.27
2022-12-17T02:02:06.000Z,268.27
2022-12-17T02:04:10.000Z,268.27
2022-12-17T02:05:34.000Z,268.27
2022-12-17T02:07:37.000Z,268.27
2022-12-17T02:09:02.000Z,268.34
2022-12-17T02:11:06.000Z,268.34
2022-12-17T02:12:30.000Z,268.34
2022-12-17T02:14:33.000Z,268.34
2022-12-17T02:15:58.000Z,268.34
2022-12-17T02:18:01.000Z,268.34
2022-12-17T02:19:26.000Z,268.27
2022-12-17T02:21:29.000Z,268.27
2022-12-17T02:24:19.000Z,268.34
2022-12-17T02:25:43.000Z,268.27
2022-12-17T02:27:47.000Z,268.27
2022-12-17T02:29:11.000Z,268.34
2022-12-17T02:31:15.000Z,268.46
2022-12-17T02:32:39.000Z,268.46
2022-12-17T02:34:43.000Z,268.46
2022-12-17T02:36:07.000Z,268.4
2022-12-17T02:38:11.000Z,268.46
2022-12-17T02:39:35.000Z,268.46
2022-12-17T02:41:38.000Z,268.4
2022-12-17T02:43:03.000Z,268.4
2022-12-17T02:45:06.000Z,268.34
2022-12-17T02:46:31.000Z,268.34
2022-12-17T02:48:34.000Z,268.4
2022-12-17T02:49:58.000Z,268.4
2022-12-17T02:52:02.000Z,268.4
2022-12-17T02:53:26.000Z,268.4
2022-12-17T02:55:30.000Z,268.34
2022-12-17T02:56:54.000Z,268.34
2022-12-17T02:58:58.000Z,268.4
2022-12-17T03:01:47.000Z,268.4
2022-12-17T03:03:12.000Z,268.46
2022-12-17T03:05:15.000Z,268.4
2022-12-17T03:07:06.000Z,268.46
2022-12-17T03:09:10.000Z,268.46
2022-12-17T03:10:34.000Z,268.46
2022-12-17T03:12:38.000Z,268.46
2022-12-17T03:14:02.000Z,268.46
2022-12-17T03:16:06.000Z,268.46
2022-12-17T03:17:30.000Z,268.52
2022-12-17T03:19:33.000Z,268.4
2022-12-17T03:20:58.000Z,268.4
2022-12-17T03:23:01.000Z,268.4
2022-12-17T03:24:26.000Z,268.4
2022-12-17T03:26:29.000Z,268.4
2022-12-17T03:27:54.000Z,268.46
2022-12-17T03:29:57.000Z,268.46
2022-12-17T03:31:21.000Z,268.4
2022-12-17T03:33:25.000Z,268.46
2022-12-17T03:34:50.000Z,268.46
2022-12-17T03:36:53.000Z,268.4
2022-12-17T03:39:42.000Z,268.4
2022-12-17T03:41:07.000Z,268.46
2022-12-17T03:43:10.000Z,268.4
2022-12-17T03:44:34.000Z,268.4
2022-12-17T03:46:38.000Z,268.46
2022-12-17T03:48:02.000Z,268.46
2022-12-17T03:50:06.000Z,268.46
2022-12-17T03:51:30.000Z,268.46
2022-12-17T03:53:34.000Z,268.46
2022-12-17T03:54:59.000Z,268.46
2022-12-17T03:57:02.000Z,268.46
2022-12-17T03:58:27.000Z,268.46
2022-12-17T04:00:30.000Z,268.46
2022-12-17T04:01:55.000Z,268.46
2022-12-17T04:03:58.000Z,268.46
2022-12-17T04:05:23.000Z,268.46
2022-12-17T04:07:26.000Z,268.46
2022-12-17T04:08:51.000Z,268.46
2022-12-17T04:10:54.000Z,268.46
2022-12-17T04:12:19.000Z,268.46
2022-12-17T04:14:22.000Z,268.46
2022-12-17T04:17:12.000Z,268.46
2022-12-17T04:18:36.000Z,268.46
2022-12-17T04:20:40.000Z,268.46
2022-12-17T04:22:04.000Z,268.46
2022-12-17T04:24:07.000Z,268.46
2022-12-17T04:25:32.000Z,268.4
2022-12-17T04:27:35.000Z,268.4
2022-12-17T04:29:00.000Z,268.46
2022-12-17T04:31:03.000Z,268.46
2022-12-17T04:32:28.000Z,268.4
2022-12-17T04:34:36.000Z,268.4
2022-12-17T04:36:01.000Z,268.46
2022-12-17T04:38:04.000Z,268.4
2022-12-17T04:39:29.000Z,268.4
2022-12-17T04:41:32.000Z,268.4
2022-12-17T04:42:57.000Z,268.4
2022-12-17T04:45:00.000Z,268.4
2022-12-17T04:46:24.000Z,268.4
2022-12-17T04:48:28.000Z,268.4
2022-12-17T04:49:52.000Z,268.4
2022-12-17T04:51:56.000Z,268.4
2022-12-17T04:54:45.000Z,268.4
2022-12-17T04:56:10.000Z,268.4
2022-12-17T04:58:13.000Z,268.4
2022-12-17T04:59:38.000Z,268.4
2022-12-17T05:01:41.000Z,268.4
2022-12-17T05:03:06.000Z,268.4
2022-12-17T05:05:09.000Z,268.4
2022-12-17T05:06:34.000Z,268.4
2022-12-17T05:08:37.000Z,268.46
2022-12-17T05:10:04.000Z,268.4
2022-12-17T05:12:07.000Z,268.4
2022-12-17T05:13:31.000Z,268.4
2022-12-17T05:15:35.000Z,268.34
2022-12-17T05:17:00.000Z,268.34
2022-12-17T05:19:04.000Z,268.34
2022-12-17T05:20:28.000Z,268.34
2022-12-17T05:22:31.000Z,268.34
2022-12-17T05:23:56.000Z,268.27
2022-12-17T05:25:59.000Z,268.27
2022-12-17T05:27:24.000Z,268.27
2022-12-17T05:29:27.000Z,268.27
2022-12-17T05:32:16.000Z,268.27
2022-12-17T05:33:41.000Z,268.27
2022-12-17T05:35:44.000Z,268.27
2022-12-17T05:37:09.000Z,268.27
2022-12-17T05:39:12.000Z,268.27
2022-12-17T05:40:36.000Z,268.27
2022-12-17T05:42:40.000Z,268.27
2022-12-17T05:44:04.000Z,268.27
2022-12-17T05:46:08.000Z,268.27
2022-12-17T05:47:32.000Z,268.27
2022-12-17T05:49:36.000Z,268.21
2022-12-17T05:51:00.000Z,268.27
2022-12-17T05:53:04.000Z,268.27
2022-12-17T05:54:28.000Z,268.27
2022-12-17T05:56:31.000Z,268.27
2022-12-17T05:57:56.000Z,268.27
2022-12-17T05:59:59.000Z,268.27
2022-12-17T06:01:24.000Z,268.27
2022-12-17T06:03:27.000Z,268.27
2022-12-17T06:04:52.000Z,268.27
2022-12-17T06:07:03.000Z,268.27
2022-12-17T06:09:52.000Z,268.27
2022-12-17T06:11:17.000Z,268.27
2022-12-17T06:13:20.000Z,268.27
2022-12-17T06:14:45.000Z,268.21
2022-12-17T06:16:48.000Z,268.21
2022-12-17T06:18:12.000Z,268.21
2022-12-17T06:20:18.000Z,268.21
2022-12-17T06:21:43.000Z,268.09
2022-12-17T06:23:46.000Z,268.09
2022-12-17T06:25:11.000Z,268.15
2022-12-17T06:27:14.000Z,268.09
2022-12-17T06:28:39.000Z,268.09
2022-12-17T06:30:42.000Z,268.02
2022-12-17T06:32:07.000Z,268.02
2022-12-17T06:34:10.000Z,267.96
2022-12-17T06:35:35.000Z,268.02
2022-12-17T06:37:38.000Z,268.02
2022-12-17T06:39:02.000Z,268.02
2022-12-17T06:41:06.000Z,267.9
2022-12-17T06:42:30.000Z,267.84
2022-12-17T06:44:34.000Z,267.84
2022-12-17T06:47:23.000Z,267.84
2022-12-17T06:48:47.000Z,267.84
2022-12-17T06:50:51.000Z,267.9
2022-12-17T06:52:15.000Z,267.9
2022-12-17T06:54:18.000Z,267.96
2022-12-17T06:55:43.000Z,267.96
2022-12-17T06:57:46.000Z,268.02
2022-12-17T06:59:13.000Z,268.02
2022-12-17T07:01:16.000Z,268.02
2022-12-17T07:02:41.000Z,268.09
2022-12-17T07:04:44.000Z,268.02
2022-12-17T07:06:09.000Z,268.09
2022-12-17T07:08:12.000Z,267.96
2022-12-17T07:09:37.000Z,268.02
2022-12-17T07:11:40.000Z,268.09
2022-12-17T07:13:05.000Z,268.09
2022-12-17T07:15:08.000Z,268.09
2022-12-17T07:16:32.000Z,268.09
2022-12-17T07:18:36.000Z,268.09
2022-12-17T07:20:00.000Z,268.09
2022-12-17T07:22:04.000Z,268.09
2022-12-17T07:24:53.000Z,267.96
2022-12-17T07:26:18.000Z,267.9
2022-12-17T07:28:21.000Z,267.9
2022-12-17T07:29:45.000Z,267.96
2022-12-17T07:31:49.000Z,267.96
2022-12-17T07:33:13.000Z,267.96
2022-12-17T07:35:17.000Z,268.02
2022-12-17T07:36:41.000Z,268.02
2022-12-17T07:38:45.000Z,268.02
2022-12-17T07:40:09.000Z,268.09
2022-12-17T07:42:12.000Z,268.09
2022-12-17T07:43:37.000Z,268.09
2022-12-17T07:45:41.000Z,268.02
2022-12-17T07:47:05.000Z,268.02
2022-12-17T07:49:09.000Z,268.02
2022-12-17T07:50:33.000Z,268.02
2022-12-17T07:52:37.000Z,268.02
2022-12-17T07:54:01.000Z,267.96
2022-12-17T07:56:04.000Z,267.9
2022-12-17T07:57:29.000Z,267.9
2022-12-17T07:59:32.000Z,268.02
2022-12-17T08:02:21.000Z,268.02
2022-12-17T08:03:46.000Z,268.02
2022-12-17T08:05:50.000Z,268.02
2022-12-17T08:07:14.000Z,268.02
2022-12-17T08:09:18.000Z,268.02
2022-12-17T08:10:42.000Z,268.09
2022-12-17T08:12:46.000Z,268.15
2022-12-17T08:14:10.000Z,268.09
2022-12-17T08:16:13.000Z,268.02
2022-12-17T08:17:38.000Z,268.02
2022-12-17T08:19:42.000Z,267.96
2022-12-17T08:21:06.000Z,267.96
2022-12-17T08:23:09.000Z,267.9
2022-12-17T08:24:34.000Z,267.9
2022-12-17T08:26:37.000Z,267.77
2022-12-17T08:28:09.000Z,267.84
2022-12-17T08:30:51.000Z,267.84
2022-12-17T08:32:15.000Z,267.84
2022-12-17T08:34:18.000Z,267.9
2022-12-17T08:35:43.000Z,267.96
2022-12-17T08:37:46.000Z,267.9
2022-12-17T08:40:36.000Z,267.84
2022-12-17T08:42:00.000Z,267.84
2022-12-17T08:44:06.000Z,267.9
2022-12-17T08:45:30.000Z,267.9
2022-12-17T08:47:34.000Z,268.02
2022-12-17T08:48:58.000Z,268.09
2022-12-17T08:51:02.000Z,268.09
2022-12-17T08:52:26.000Z,268.15
2022-12-17T08:54:29.000Z,268.15
2022-12-17T08:55:54.000Z,268.21
2022-12-17T08:57:58.000Z,268.21
2022-12-17T08:59:23.000Z,268.21
2022-12-17T09:01:26.000Z,268.21
2022-12-17T09:02:51.000Z,268.27
2022-12-17T09:06:20.000Z,268.27
2022-12-17T09:08:23.000Z,268.27
2022-12-17T09:09:48.000Z,268.27
2022-12-17T09:11:51.000Z,268.27
2022-12-17T09:13:16.000Z,268.21
2022-12-17T09:15:19.000Z,268.02
2022-12-17T09:18:09.000Z,267.96
2022-12-17T09:19:33.000Z,267.84
2022-12-17T09:21:37.000Z,267.71
2022-12-17T09:23:01.000Z,267.77
2022-12-17T09:25:04.000Z,267.77
2022-12-17T09:26:29.000Z,267.71
2022-12-17T09:28:32.000Z,267.77
2022-12-17T09:29:57.000Z,267.84
2022-12-17T09:32:00.000Z,268.02
2022-12-17T09:33:25.000Z,268.09
2022-12-17T09:35:28.000Z,268.15
2022-12-17T09:36:53.000Z,268.21
2022-12-17T09:38:56.000Z,268.21
2022-12-17T09:40:20.000Z,268.27
2022-12-17T09:42:24.000Z,268.09
2022-12-17T09:43:48.000Z,268.02
2022-12-17T09:45:52.000Z,268.21
2022-12-17T09:47:16.000Z,268.21
2022-12-17T09:49:20.000Z,268.34
2022-12-17T09:50:44.000Z,268.34
2022-12-17T09:52:48.000Z,268.4
2022-12-17T09:55:37.000Z,268.46
2022-12-17T09:57:01.000Z,268.4
2022-12-17T09:59:05.000Z,268.34
2022-12-17T10:00:29.000Z,268.46
2022-12-17T10:02:33.000Z,268.52
2022-12-17T10:03:58.000Z,268.46
2022-12-17T10:06:01.000Z,268.21
2022-12-17T10:07:26.000Z,268.4
2022-12-17T10:09:29.000Z,268.34
2022-12-17T10:10:53.000Z,268.34
2022-12-17T10:12:57.000Z,268.27
2022-12-17T10:14:21.000Z,268.27
2022-12-17T10:16:25.000Z,268.09
2022-12-17T10:17:49.000Z,268.21
2022-12-17T10:19:53.000Z,268.4
2022-12-17T10:21:18.000Z,268.52
2022-12-17T10:23:21.000Z,268.59
2022-12-17T10:24:46.000Z,268.59
2022-12-17T10:26:49.000Z,268.65
2022-12-17T10:28:14.000Z,268.59
2022-12-17T10:30:17.000Z,268.71
2022-12-17T10:33:06.000Z,268.77
2022-12-17T10:34:31.000Z,268.77
2022-12-17T10:36:34.000Z,268.84
2022-12-17T10:37:59.000Z,268.84
2022-12-17T10:40:02.000Z,268.84
2022-12-17T10:41:26.000Z,268.71
2022-12-17T10:43:30.000Z,268.84
2022-12-17T10:44:54.000Z,268.84
2022-12-17T10:46:58.000Z,268.84
2022-12-17T10:48:22.000Z,268.9
2022-12-17T10:50:26.000Z,268.96
2022-12-17T10:51:50.000Z,268.96
2022-12-17T10:53:53.000Z,268.9
2022-12-17T10:55:18.000Z,268.96
2022-12-17T10:57:21.000Z,268.96
2022-12-17T10:58:46.000Z,268.9
2022-12-17T11:00:49.000Z,268.65
2022-12-17T11:02:14.000Z,268.84
2022-12-17T11:04:18.000Z,268.9
2022-12-17T11:05:42.000Z,268.96
2022-12-17T11:07:45.000Z,268.96
2022-12-17T11:10:35.000Z,268.77
2022-12-17T11:11:59.000Z,268.65
2022-12-17T11:14:08.000Z,268.59
2022-12-17T11:15:33.000Z,268.59
2022-12-17T11:17:36.000Z,268.52
2022-12-17T11:19:01.000Z,268.59
2022-12-17T11:21:04.000Z,268.65
2022-12-17T11:22:29.000Z,268.84
2022-12-17T11:24:32.000Z,268.96
2022-12-17T11:25:57.000Z,269.02
2022-12-17T11:28:00.000Z,269.09
2022-12-17T11:29:24.000Z,269.15
2022-12-17T11:31:28.000Z,269.21
2022-12-17T11:32:52.000Z,269.15
2022-12-17T11:34:56.000Z,269.21
2022-12-17T11:36:20.000Z,269.21
2022-12-17T11:38:32.000Z,269.27
2022-12-17T11:39:57.000Z,269.21
2022-12-17T11:42:01.000Z,269.27
2022-12-17T11:43:33.000Z,269.27
2022-12-17T11:45:36.000Z,269.21
2022-12-17T11:48:25.000Z,269.21
2022-12-17T11:49:50.000Z,269.02
2022-12-17T11:51:53.000Z,268.84
2022-12-17T11:53:18.000Z,268.9
2022-12-17T11:55:29.000Z,269.09
2022-12-17T11:56:53.000Z,269.21
2022-12-17T11:58:56.000Z,269.15
2022-12-17T12:00:21.000Z,269.21
2022-12-17T12:02:24.000Z,269.21
2022-12-17T12:03:49.000Z,269.27
2022-12-17T12:05:53.000Z,269.27
2022-12-17T12:07:19.000Z,269.4
2022-12-17T12:09:22.000Z,269.4
2022-12-17T12:10:47.000Z,269.46
2022-12-17T12:12:50.000Z,269.46
2022-12-17T12:14:15.000Z,269.4
2022-12-17T12:16:18.000Z,269.15
2022-12-17T12:17:43.000Z,269.27
2022-12-17T12:19:46.000Z,269.21
2022-12-17T12:21:11.000Z,269.27
2022-12-17T12:23:14.000Z,269.34
2022-12-17T12:26:03.000Z,269.34
2022-12-17T12:27:28.000Z,269.15
2022-12-17T12:29:31.000Z,269.09
2022-12-17T12:30:55.000Z,269.02
2022-12-17T12:32:59.000Z,269.21
2022-12-17T12:34:30.000Z,269.27
2022-12-17T12:36:34.000Z,269.4
2022-12-17T12:37:58.000Z,269.46
2022-12-17T12:40:01.000Z,269.34
2022-12-17T12:41:26.000Z,269.4
2022-12-17T12:43:29.000Z,269.4
2022-12-17T12:44:54.000Z,269.4
2022-12-17T12:46:57.000Z,269.27
2022-12-17T12:48:21.000Z,269.27
2022-12-17T12:50:25.000Z,269.34
2022-12-17T12:51:49.000Z,269.34
2022-12-17T12:53:53.000Z,269.09
2022-12-17T12:55:17.000Z,269.15
2022-12-17T12:57:20.000Z,269.15
2022-12-17T12:58:45.000Z,269.15
2022-12-17T13:00:48.000Z,269.21
2022-12-17T13:03:37.000Z,269.27
2022-12-17T13:05:02.000Z,269.09
2022-12-17T13:07:06.000Z,269.21
2022-12-17T13:08:30.000Z,269.15
2022-12-17T13:10:34.000Z,269.21
2022-12-17T13:11:58.000Z,269.27
2022-12-17T13:14:02.000Z,269.4
2022-12-17T13:15:26.000Z,269.34
2022-12-17T13:17:34.000Z,269.34
2022-12-17T13:18:59.000Z,269.27
2022-12-17T13:21:02.000Z,269.27
2022-12-17T13:22:27.000Z,269.21
2022-12-17T13:24:30.000Z,269.27
2022-12-17T13:25:55.000Z,269.27
2022-12-17T13:27:58.000Z,269.4
2022-12-17T13:29:23.000Z,269.4
2022-12-17T13:31:26.000Z,269.34
2022-12-17T13:32:51.000Z,269.34
2022-12-17T13:34:54.000Z,269.21
2022-12-17T13:36:19.000Z,269.15
2022-12-17T13:38:23.000Z,268.96
2022-12-17T13:41:12.000Z,269.02
2022-12-17T13:42:37.000Z,268.96
2022-12-17T13:44:40.000Z,268.9
2022-12-17T13:46:04.000Z,268.96
2022-12-17T13:48:08.000Z,268.84
2022-12-17T13:49:32.000Z,268.84
2022-12-17T13:51:36.000Z,268.77
2022-12-17T13:53:00.000Z,268.77
2022-12-17T13:55:04.000Z,268.65
2022-12-17T13:56:28.000Z,268.71
2022-12-17T13:58:32.000Z,268.71
2022-12-17T13:59:57.000Z,268.71
2022-12-17T14:02:00.000Z,268.71
2022-12-17T14:03:25.000Z,268.84
2022-12-17T14:06:05.000Z,268.77
2022-12-17T14:07:30.000Z,268.84
2022-12-17T14:09:33.000Z,268.84
2022-12-17T14:10:57.000Z,268.84
2022-12-17T14:13:08.000Z,268.84
2022-12-17T14:14:32.000Z,268.84
2022-12-17T14:16:36.000Z,268.77
2022-12-17T14:19:25.000Z,268.71
2022-12-17T14:20:49.000Z,268.71
2022-12-17T14:22:53.000Z,268.71
2022-12-17T14:24:17.000Z,268.71
2022-12-17T14:26:20.000Z,268.65
2022-12-17T14:27:45.000Z,268.65
2022-12-17T14:29:48.000Z,268.59
2022-12-17T14:31:13.000Z,268.59
2022-12-17T14:33:29.000Z,268.52
2022-12-17T14:34:53.000Z,268.52
2022-12-17T14:37:02.000Z,268.52
2022-12-17T14:38:26.000Z,268.46
2022-12-17T14:40:39.000Z,268.46
2022-12-17T14:42:04.000Z,268.4
2022-12-17T14:44:07.000Z,268.34
2022-12-17T14:45:32.000Z,268.21
2022-12-17T14:47:35.000Z,268.15
2022-12-17T14:49:00.000Z,268.15
2022-12-17T14:51:03.000Z,268.09
2022-12-17T14:52:27.000Z,268.09
2022-12-17T14:54:31.000Z,268.02
2022-12-17T14:58:52.000Z,267.9
2022-12-17T15:00:59.000Z,267.77
2022-12-17T15:03:05.000Z,267.77
2022-12-17T15:05:00.000Z,267.71
2022-12-17T15:06:25.000Z,267.65
2022-12-17T15:08:28.000Z,267.59
2022-12-17T15:09:53.000Z,267.52
2022-12-17T15:11:56.000Z,267.52
2022-12-17T15:13:21.000Z,267.46
2022-12-17T15:15:24.000Z,267.4
2022-12-17T15:16:48.000Z,267.34
2022-12-17T15:18:52.000Z,267.34
2022-12-17T15:20:16.000Z,267.27
2022-12-17T15:22:20.000Z,267.21
2022-12-17T15:23:44.000Z,267.21
2022-12-17T15:25:48.000Z,267.15
2022-12-17T15:27:12.000Z,267.15
2022-12-17T15:29:16.000Z,267.09
2022-12-17T15:30:40.000Z,267.09
2022-12-17T15:32:44.000Z,266.96
2022-12-17T15:34:08.000Z,266.96
2022-12-17T15:36:12.000Z,266.9
2022-12-17T15:37:36.000Z,266.84
2022-12-17T15:39:40.000Z,266.77
2022-12-17T15:42:29.000Z,266.71
2022-12-17T15:43:53.000Z,266.65
2022-12-17T15:45:57.000Z,266.59
2022-12-17T15:47:21.000Z,266.59
2022-12-17T15:49:25.000Z,266.52
2022-12-17T15:50:49.000Z,266.46
2022-12-17T15:52:53.000Z,266.46
2022-12-17T15:54:17.000Z,266.46
2022-12-17T15:56:20.000Z,266.4
2022-12-17T15:57:45.000Z,266.34
2022-12-17T15:59:48.000Z,266.27
2022-12-17T16:01:13.000Z,266.27
2022-12-17T16:03:16.000Z,266.21
2022-12-17T16:04:41.000Z,266.21
2022-12-17T16:06:44.000Z,266.15
2022-12-17T16:08:09.000Z,266.02
2022-12-17T16:10:12.000Z,266.02
2022-12-17T16:11:36.000Z,265.96
2022-12-17T16:13:40.000Z,265.9
2022-12-17T16:15:04.000Z,265.9
2022-12-17T16:17:08.000Z,265.84
2022-12-17T16:19:57.000Z,265.84
2022-12-17T16:21:21.000Z,265.84
2022-12-17T16:23:25.000Z,265.84
2022-12-17T16:24:49.000Z,265.77
2022-12-17T16:26:53.000Z,265.77
2022-12-17T16:28:24.000Z,265.77
2022-12-17T16:30:28.000Z,265.71
2022-12-17T16:31:52.000Z,265.65
2022-12-17T16:33:56.000Z,265.65
2022-12-17T16:35:20.000Z,265.65
2022-12-17T16:37:24.000Z,265.59
2022-12-17T16:38:48.000Z,265.65
2022-12-17T16:40:52.000Z,265.59
2022-12-17T16:42:16.000Z,265.52
2022-12-17T16:44:19.000Z,265.4
2022-12-17T16:45:44.000Z,265.4
2022-12-17T16:47:47.000Z,265.34
2022-12-17T16:49:12.000Z,265.34
2022-12-17T16:51:15.000Z,265.34
2022-12-17T16:52:50.000Z,265.34
2022-12-17T16:54:53.000Z,265.27
2022-12-17T16:57:42.000Z,265.27
2022-12-17T16:59:07.000Z,265.27
2022-12-17T17:01:10.000Z,265.27
2022-12-17T17:02:35.000Z,265.21
2022-12-17T17:04:39.000Z,265.21
2022-12-17T17:06:03.000Z,265.15
2022-12-17T17:08:07.000Z,265.15
2022-12-17T17:09:31.000Z,265.15
2022-12-17T17:11:35.000Z,265.09
2022-12-17T17:12:59.000Z,265.09
2022-12-17T17:15:02.000Z,265.09
2022-12-17T17:16:27.000Z,265.09
2022-12-17T17:18:30.000Z,265.09
2022-12-17T17:19:55.000Z,265.09
2022-12-17T17:21:58.000Z,265.09
2022-12-17T17:23:23.000Z,265.09
2022-12-17T17:25:26.000Z,265.02
2022-12-17T17:27:12.000Z,264.96
2022-12-17T17:29:16.000Z,264.9
2022-12-17T17:30:40.000Z,264.9
2022-12-17T17:32:44.000Z,264.84
2022-12-17T17:35:33.000Z,264.84
2022-12-17T17:36:58.000Z,264.84
2022-12-17T17:39:01.000Z,264.77
2022-12-17T17:40:25.000Z,264.77
2022-12-17T17:42:29.000Z,264.71
2022-12-17T17:43:53.000Z,264.71
2022-12-17T17:45:57.000Z,264.71
2022-12-17T17:47:21.000Z,264.65
2022-12-17T17:49:25.000Z,264.71
2022-12-17T17:50:49.000Z,264.71
2022-12-17T17:52:52.000Z,264.59
2022-12-17T17:54:17.000Z,264.59
2022-12-17T17:56:20.000Z,264.46
2022-12-17T17:57:45.000Z,264.52
2022-12-17T17:59:48.000Z,264.46
2022-12-17T18:01:13.000Z,264.46
2022-12-17T18:03:16.000Z,264.4
2022-12-17T18:04:41.000Z,264.4
2022-12-17T18:06:44.000Z,264.4
2022-12-17T18:08:46.000Z,264.34
2022-12-17T18:10:49.000Z,264.34
2022-12-17T18:13:38.000Z,264.34
2022-12-17T18:15:03.000Z,264.34
2022-12-17T18:17:16.000Z,264.27
2022-12-17T18:18:40.000Z,264.34
2022-12-17T18:20:43.000Z,264.27
2022-12-17T18:22:08.000Z,264.27
2022-12-17T18:24:11.000Z,264.21
2022-12-17T18:25:36.000Z,264.21
2022-12-17T18:27:39.000Z,264.15
2022-12-17T18:29:04.000Z,264.15
2022-12-17T18:31:07.000Z,264.15
2022-12-17T18:32:31.000Z,264.15
2022-12-17T18:34:35.000Z,264.09
2022-12-17T18:35:59.000Z,264.02
2022-12-17T18:38:03.000Z,263.96
2022-12-17T18:39:27.000Z,263.96
2022-12-17T18:41:31.000Z,263.96
2022-12-17T18:42:55.000Z,263.96
2022-12-17T18:44:59.000Z,264.02
2022-12-17T18:46:23.000Z,264.02
2022-12-17T18:48:27.000Z,264.02
2022-12-17T18:51:16.000Z,263.9
2022-12-17T18:52:40.000Z,263.9
2022-12-17T18:54:44.000Z,263.9
2022-12-17T18:56:08.000Z,263.9
2022-12-17T18:58:12.000Z,263.77
2022-12-17T18:59:36.000Z,263.77
2022-12-17T19:01:39.000Z,263.71
2022-12-17T19:03:04.000Z,263.77
2022-12-17T19:05:08.000Z,263.71
2022-12-17T19:06:32.000Z,263.65
2022-12-17T19:08:36.000Z,263.65
2022-12-17T19:10:01.000Z,263.65
2022-12-17T19:12:04.000Z,263.59
2022-12-17T19:13:29.000Z,263.59
2022-12-17T19:15:32.000Z,263.59
2022-12-17T19:16:57.000Z,263.59
2022-12-17T19:19:00.000Z,263.59
2022-12-17T19:20:25.000Z,263.59
2022-12-17T19:22:28.000Z,263.59
2022-12-17T19:23:52.000Z,263.59
2022-12-17T19:25:56.000Z,263.59
2022-12-17T19:28:45.000Z,263.59
2022-12-17T19:30:10.000Z,263.52
2022-12-17T19:32:13.000Z,263.52
2022-12-17T19:33:38.000Z,263.46
2022-12-17T19:35:41.000Z,263.46
2022-12-17T19:37:05.000Z,263.46
2022-12-17T19:39:09.000Z,263.4
2022-12-17T19:40:33.000Z,263.4
2022-12-17T19:42:37.000Z,263.4
2022-12-17T19:44:01.000Z,263.4
2022-12-17T19:46:05.000Z,263.34
2022-12-17T19:47:29.000Z,263.27
2022-12-17T19:49:33.000Z,263.27
2022-12-17T19:50:57.000Z,263.27
2022-12-17T19:53:00.000Z,263.27
2022-12-17T19:54:25.000Z,263.21
2022-12-17T19:56:28.000Z,263.21
2022-12-17T19:57:53.000Z,263.21
2022-12-17T20:01:30.000Z,263.21
2022-12-17T20:03:44.000Z,263.21
2022-12-17T20:05:08.000Z,263.21
2022-12-17T20:07:12.000Z,263.15
2022-12-17T20:08:36.000Z,263.15
2022-12-17T20:10:40.000Z,263.15
2022-12-17T20:12:05.000Z,263.09
2022-12-17T20:14:08.000Z,263.09
2022-12-17T20:15:32.000Z,263.09
2022-12-17T20:17:36.000Z,263.09
2022-12-17T20:19:00.000Z,263.09
2022-12-17T20:21:04.000Z,263.02
2022-12-17T20:22:28.000Z,262.96
2022-12-17T20:24:32.000Z,262.96
2022-12-17T20:25:56.000Z,263.02
2022-12-17T20:27:59.000Z,262.96
2022-12-17T20:29:24.000Z,262.9
2022-12-17T20:31:27.000Z,262.84
2022-12-17T20:32:52.000Z,262.9
2022-12-17T20:34:55.000Z,262.9
2022-12-17T20:36:20.000Z,262.84
2022-12-17T20:38:23.000Z,262.84
2022-12-17T20:41:12.000Z,262.77
2022-12-17T20:42:37.000Z,262.77
2022-12-17T20:44:40.000Z,262.77
2022-12-17T20:46:05.000Z,262.77
2022-12-17T20:48:08.000Z,262.77
2022-12-17T20:49:33.000Z,262.77
2022-12-17T20:51:36.000Z,262.77
2022-12-17T20:53:01.000Z,262.71
2022-12-17T20:55:04.000Z,262.71
2022-12-17T20:56:28.000Z,262.71
2022-12-17T20:58:32.000Z,262.71
2022-12-17T20:59:56.000Z,262.65
2022-12-17T21:02:00.000Z,262.59
2022-12-17T21:03:25.000Z,262.65
2022-12-17T21:05:28.000Z,262.71
2022-12-17T21:06:53.000Z,262.71
2022-12-17T21:08:56.000Z,262.71
2022-12-17T21:10:21.000Z,262.77
2022-12-17T21:12:24.000Z,262.77
2022-12-17T21:13:48.000Z,262.84
2022-12-17T21:15:52.000Z,262.77
2022-12-17T21:18:41.000Z,262.84
2022-12-17T21:20:05.000Z,262.84
2022-12-17T21:22:11.000Z,262.77
2022-12-17T21:23:36.000Z,262.71
2022-12-17T21:25:39.000Z,262.71
2022-12-17T21:27:04.000Z,262.65
2022-12-17T21:29:15.000Z,262.59
2022-12-17T21:30:40.000Z,262.59
2022-12-17T21:32:43.000Z,262.59
2022-12-17T21:34:08.000Z,262.65
2022-12-17T21:36:11.000Z,262.59
2022-12-17T21:37:36.000Z,262.52
2022-12-17T21:39:39.000Z,262.46
2022-12-17T21:41:03.000Z,262.46
2022-12-17T21:43:07.000Z,262.4
2022-12-17T21:44:31.000Z,262.4
2022-12-17T21:46:35.000Z,262.34
2022-12-17T21:48:00.000Z,262.34
2022-12-17T21:51:37.000Z,262.4
2022-12-17T21:52:10.000Z,262.4
2022-12-17T21:53:35.000Z,262.4
2022-12-17T21:55:38.000Z,262.34
2022-12-17T21:58:22.000Z,262.34
2022-12-17T21:59:46.000Z,262.4
2022-12-17T22:01:52.000Z,262.46
2022-12-17T22:03:17.000Z,262.46
2022-12-17T22:05:20.000Z,262.46
2022-12-17T22:06:45.000Z,262.46
2022-12-17T22:09:01.000Z,262.34
2022-12-17T22:10:38.000Z,262.34
2022-12-17T22:12:52.000Z,262.34
2022-12-17T22:14:16.000Z,262.27
2022-12-17T22:16:22.000Z,262.34
2022-12-17T22:17:47.000Z,262.27
2022-12-17T22:19:50.000Z,262.15
2022-12-17T22:21:14.000Z,262.15
2022-12-17T22:23:18.000Z,262.09
2022-12-17T22:24:43.000Z,262.02
2022-12-17T22:26:46.000Z,262.09
2022-12-17T22:28:11.000Z,262.15
2022-12-17T22:30:14.000Z,262.15
2022-12-17T22:31:38.000Z,262.15
2022-12-17T22:33:42.000Z,262.09